Grenora, North Dakota
Current Conditions -  °F | °C
As of 1:52 AM on Friday 31 Oct 2014 (Local Time) from KISN Reporting Station
Overcast Overcast  
Wind Chill: 19°   Ceiling: 1500
Heat Index: 30°   Visibility: 10mi
Dew Point: 23°   Wind: 16mph
Humidity: 75%   Direction: 140°SE
Pressure: 30.48"   Gusts: NA
Location:  48.62°N, 103.94°W
Report Text: KISN 310652Z AUTO 14014KT 10SM OVC015 M01/M05 A3048 RMK AO2 SLP345 T10111050
Loading
Personal Weather Stations






























Interactive Weather Map
Tropical Storm Tracking
New forecast layout! Learn more

10-Day Weather Forecast

Advertisements
Track Severe Weather on mobile